createdAt,value
2018-09-25T00:00:14.400Z,99.23
2018-09-25T00:03:24.018Z,99.22
2018-09-25T00:06:33.680Z,99.16
2018-09-25T00:09:43.231Z,99.51
2018-09-25T00:12:52.863Z,99.79
2018-09-25T00:16:02.414Z,99.67
2018-09-25T00:19:12.198Z,100.00
2018-09-25T00:22:21.725Z,100.00
2018-09-25T00:25:31.359Z,100.00
2018-09-25T00:28:40.891Z,100.00
2018-09-25T00:31:50.426Z,100.00
2018-09-25T00:35:00.092Z,100.00
2018-09-25T00:38:09.583Z,100.00
2018-09-25T00:41:19.314Z,100.00
2018-09-25T00:44:28.907Z,100.00
2018-09-25T00:47:38.606Z,99.43
2018-09-25T00:50:48.230Z,98.76
2018-09-25T00:53:57.652Z,98.55
2018-09-25T00:57:07.144Z,97.99
2018-09-25T01:00:16.716Z,97.96
2018-09-25T01:03:26.299Z,97.97
2018-09-25T01:06:35.946Z,98.02
2018-09-25T01:09:45.475Z,98.74
2018-09-25T01:12:54.960Z,98.80
2018-09-25T01:16:04.429Z,99.27
2018-09-25T01:19:13.979Z,99.43
2018-09-25T01:22:23.439Z,99.94
2018-09-25T01:25:32.955Z,100.00
2018-09-25T01:28:42.448Z,98.86
2018-09-25T01:31:51.893Z,99.13
2018-09-25T01:35:01.472Z,99.52
2018-09-25T01:38:11.063Z,100.00
2018-09-25T01:41:20.741Z,100.00
2018-09-25T01:44:30.368Z,100.00
2018-09-25T01:47:40.004Z,100.00
2018-09-25T01:50:49.621Z,100.00
2018-09-25T01:53:59.183Z,100.00
2018-09-25T01:57:08.872Z,100.00
2018-09-25T02:00:18.405Z,100.00
2018-09-25T02:03:28.037Z,100.00
2018-09-25T02:06:37.673Z,100.00
2018-09-25T02:09:47.207Z,100.00
2018-09-25T02:12:56.799Z,100.00
2018-09-25T02:16:06.445Z,100.00
2018-09-25T02:19:16.169Z,100.00
2018-09-25T02:22:25.669Z,100.00
2018-09-25T02:25:35.132Z,100.00
2018-09-25T02:28:44.739Z,100.00
2018-09-25T02:31:54.235Z,100.00
2018-09-25T02:35:03.717Z,100.00
2018-09-25T02:38:13.326Z,100.00
2018-09-25T02:41:22.990Z,100.00
2018-09-25T02:44:32.638Z,100.00
2018-09-25T02:47:42.197Z,100.00
2018-09-25T02:50:51.600Z,100.00
2018-09-25T02:54:01.257Z,100.00
2018-09-25T02:57:10.916Z,100.00
2018-09-25T03:00:20.557Z,100.00
2018-09-25T03:03:30.620Z,100.00
2018-09-25T03:06:40.262Z,100.00
2018-09-25T03:09:49.793Z,100.00
2018-09-25T03:12:59.429Z,100.00
2018-09-25T03:16:09.107Z,100.00
2018-09-25T03:19:18.763Z,100.00
2018-09-25T03:22:28.392Z,100.00
2018-09-25T03:25:37.964Z,100.00
2018-09-25T03:28:47.586Z,100.00
2018-09-25T03:31:57.046Z,100.00
2018-09-25T03:35:06.674Z,100.00
2018-09-25T03:38:16.227Z,100.00
2018-09-25T03:41:25.819Z,100.00
2018-09-25T03:44:35.347Z,100.00
2018-09-25T03:47:45.033Z,100.00
2018-09-25T03:50:54.594Z,100.00
2018-09-25T03:54:04.140Z,100.00
2018-09-25T03:57:13.876Z,100.00
2018-09-25T04:00:23.437Z,100.00
2018-09-25T04:03:32.888Z,100.00
2018-09-25T04:06:42.388Z,100.00
2018-09-25T04:09:51.838Z,100.00
2018-09-25T04:13:01.304Z,100.00
2018-09-25T04:16:10.728Z,100.00
2018-09-25T04:19:20.239Z,100.00
2018-09-25T04:22:29.793Z,100.00
2018-09-25T04:25:39.270Z,100.00
2018-09-25T04:28:48.797Z,100.00
2018-09-25T04:31:58.230Z,100.00
2018-09-25T04:35:07.881Z,100.00
2018-09-25T04:38:17.439Z,100.00
2018-09-25T04:41:27.076Z,100.00
2018-09-25T04:44:36.669Z,100.00
2018-09-25T04:47:46.274Z,100.00
2018-09-25T04:50:55.756Z,100.00
2018-09-25T04:54:05.286Z,100.00
2018-09-25T04:57:14.901Z,100.00
2018-09-25T05:00:28.247Z,100.00
2018-09-25T05:03:37.874Z,100.00
2018-09-25T05:06:47.418Z,100.00
2018-09-25T05:09:56.971Z,100.00
2018-09-25T05:13:06.623Z,100.00
2018-09-25T05:16:16.268Z,100.00
2018-09-25T05:19:25.908Z,100.00
2018-09-25T05:22:35.557Z,100.00
2018-09-25T05:25:44.957Z,100.00
2018-09-25T05:28:54.434Z,100.00
2018-09-25T05:32:03.968Z,100.00
2018-09-25T05:35:13.409Z,100.00
2018-09-25T05:38:22.912Z,100.00
2018-09-25T05:41:32.514Z,100.00
2018-09-25T05:44:42.039Z,100.00
2018-09-25T05:47:51.615Z,100.00
2018-09-25T05:51:01.064Z,100.00
2018-09-25T05:54:10.683Z,100.00
2018-09-25T05:57:20.333Z,100.00
2018-09-25T06:00:29.976Z,100.00
2018-09-25T06:03:39.628Z,100.00
2018-09-25T06:06:49.265Z,100.00
2018-09-25T06:09:58.817Z,100.00
2018-09-25T06:13:08.375Z,100.00
2018-09-25T06:16:18.000Z,100.00
2018-09-25T06:19:27.684Z,100.00
2018-09-25T06:22:37.395Z,100.00
2018-09-25T06:25:46.985Z,100.00
2018-09-25T06:28:56.609Z,100.00
2018-09-25T06:32:06.231Z,100.00
2018-09-25T06:35:15.886Z,100.00
2018-09-25T06:38:25.454Z,100.00
2018-09-25T06:41:35.075Z,100.00
2018-09-25T06:44:44.633Z,100.00
2018-09-25T06:47:54.266Z,99.19
2018-09-25T06:51:03.733Z,98.75
2018-09-25T06:54:13.368Z,98.51
2018-09-25T06:57:22.911Z,98.24
2018-09-25T07:00:32.473Z,97.35
2018-09-25T07:03:42.087Z,95.65
2018-09-25T07:06:51.735Z,95.37
2018-09-25T07:10:01.576Z,94.77
2018-09-25T07:13:10.942Z,93.74
2018-09-25T07:16:20.578Z,92.64
2018-09-25T07:19:30.223Z,91.73
2018-09-25T07:22:39.930Z,90.58
2018-09-25T07:25:49.530Z,90.07
2018-09-25T07:28:59.104Z,88.53
2018-09-25T07:32:08.828Z,87.97
2018-09-25T07:35:18.431Z,87.15
2018-09-25T07:38:28.010Z,84.75
2018-09-25T07:41:37.665Z,81.24
2018-09-25T07:44:47.284Z,80.44
2018-09-25T07:47:58.042Z,79.73
2018-09-25T07:51:07.601Z,80.18
2018-09-25T07:54:17.257Z,79.64
2018-09-25T07:57:26.898Z,78.23
2018-09-25T08:00:36.541Z,79.40
2018-09-25T08:03:46.219Z,79.90
2018-09-25T08:06:55.770Z,80.30
2018-09-25T08:10:05.396Z,79.90
2018-09-25T08:13:15.015Z,78.63
2018-09-25T08:16:24.599Z,78.71
2018-09-25T08:19:34.247Z,78.83
2018-09-25T08:22:43.699Z,77.85
2018-09-25T08:25:53.206Z,76.27
2018-09-25T08:29:02.752Z,75.79
2018-09-25T08:32:12.392Z,75.48
2018-09-25T08:35:22.049Z,74.06
2018-09-25T08:38:31.711Z,75.33
2018-09-25T08:41:41.217Z,70.88
2018-09-25T08:44:50.923Z,71.82
2018-09-25T08:48:00.633Z,71.21
2018-09-25T08:51:10.242Z,71.83
2018-09-25T08:54:19.958Z,70.73
2018-09-25T08:57:29.586Z,69.74
2018-09-25T09:00:39.234Z,70.11
2018-09-25T09:03:48.862Z,68.64
2018-09-25T09:06:59.447Z,68.93
2018-09-25T09:10:09.094Z,67.30
2018-09-25T09:13:18.737Z,67.19
2018-09-25T09:16:28.384Z,66.04
2018-09-25T09:19:38.040Z,67.09
2018-09-25T09:22:47.649Z,68.14
2018-09-25T09:25:57.265Z,65.69
2018-09-25T09:29:06.863Z,65.12
2018-09-25T09:32:16.495Z,66.25
2018-09-25T09:35:26.036Z,67.06
2018-09-25T09:38:35.706Z,68.36
2018-09-25T09:41:45.350Z,68.82
2018-09-25T09:44:54.800Z,68.44
2018-09-25T09:48:04.521Z,68.38
2018-09-25T09:51:14.175Z,68.76
2018-09-25T09:54:23.835Z,68.38
2018-09-25T09:57:33.479Z,67.00
2018-09-25T10:00:43.099Z,67.72
2018-09-25T10:03:52.673Z,68.31
2018-09-25T10:07:02.243Z,67.44
2018-09-25T10:10:11.867Z,66.66
2018-09-25T10:13:21.487Z,66.13
2018-09-25T10:16:31.064Z,66.32
2018-09-25T10:19:40.536Z,66.17
2018-09-25T10:22:50.029Z,66.38
2018-09-25T10:25:59.572Z,66.72
2018-09-25T10:29:09.217Z,67.14
2018-09-25T10:32:18.880Z,67.81
2018-09-25T10:35:28.415Z,66.94
2018-09-25T10:38:37.990Z,68.18
2018-09-25T10:41:47.720Z,68.37
2018-09-25T10:44:57.338Z,66.66
2018-09-25T10:48:06.987Z,66.49
2018-09-25T10:51:16.546Z,66.09
2018-09-25T10:54:26.110Z,66.49
2018-09-25T10:57:35.685Z,66.23
2018-09-25T11:00:45.143Z,65.84
2018-09-25T11:03:54.724Z,65.66
2018-09-25T11:07:04.384Z,67.28
2018-09-25T11:10:14.112Z,68.55
2018-09-25T11:13:23.701Z,69.29
2018-09-25T11:16:33.167Z,69.41
2018-09-25T11:19:42.757Z,68.78
2018-09-25T11:22:52.144Z,68.35
2018-09-25T11:26:01.740Z,67.92
2018-09-25T11:29:11.630Z,66.66
2018-09-25T11:32:21.324Z,68.08
2018-09-25T11:35:30.965Z,68.43
2018-09-25T11:38:40.563Z,69.30
2018-09-25T11:41:50.169Z,70.81
2018-09-25T11:44:59.807Z,70.67
2018-09-25T11:48:09.439Z,71.40
2018-09-25T11:51:19.052Z,72.10
2018-09-25T11:54:28.619Z,72.52
2018-09-25T11:57:38.141Z,71.12
2018-09-25T12:00:47.585Z,69.82
2018-09-25T12:03:57.516Z,67.32
2018-09-25T12:07:07.223Z,68.56
2018-09-25T12:10:16.829Z,65.60
2018-09-25T12:13:26.457Z,65.32
2018-09-25T12:16:36.089Z,65.29
2018-09-25T12:19:45.778Z,66.83
2018-09-25T12:22:55.274Z,68.28
2018-09-25T12:26:04.915Z,69.56
2018-09-25T12:29:14.546Z,70.50
2018-09-25T12:32:24.259Z,70.33
2018-09-25T12:35:33.855Z,71.52
2018-09-25T12:38:43.534Z,71.27
2018-09-25T12:41:53.244Z,70.33
2018-09-25T12:45:02.872Z,65.20
2018-09-25T12:48:12.543Z,65.46
2018-09-25T12:51:22.152Z,66.42
2018-09-25T12:54:31.609Z,67.35
2018-09-25T12:57:40.999Z,67.52
2018-09-25T13:00:50.617Z,67.45
2018-09-25T13:04:00.293Z,67.14
2018-09-25T13:07:10.194Z,68.62
2018-09-25T13:10:20.910Z,69.92
2018-09-25T13:13:30.397Z,68.82
2018-09-25T13:16:39.978Z,70.90
2018-09-25T13:19:49.557Z,70.62
2018-09-25T13:22:59.143Z,72.13
2018-09-25T13:26:08.728Z,72.86
2018-09-25T13:29:18.279Z,74.43
2018-09-25T13:32:27.888Z,74.11
2018-09-25T13:35:37.492Z,73.16
2018-09-25T13:38:47.171Z,71.65
2018-09-25T13:41:56.758Z,70.93
2018-09-25T13:45:06.405Z,71.10
2018-09-25T13:48:16.135Z,69.99
2018-09-25T13:51:25.762Z,69.46
2018-09-25T13:54:35.136Z,70.27
2018-09-25T13:57:44.667Z,70.47
2018-09-25T14:00:54.228Z,69.57
2018-09-25T14:04:03.718Z,70.73
2018-09-25T14:07:13.275Z,68.57
2018-09-25T14:10:22.837Z,67.71
2018-09-25T14:13:32.484Z,68.50
2018-09-25T14:16:42.114Z,68.08
2018-09-25T14:19:51.782Z,69.01
2018-09-25T14:23:01.322Z,69.07
2018-09-25T14:26:10.959Z,70.51
2018-09-25T14:29:20.504Z,69.46
2018-09-25T14:32:30.139Z,70.02
2018-09-25T14:35:39.828Z,70.04
2018-09-25T14:38:49.376Z,69.21
2018-09-25T14:41:58.977Z,69.18
2018-09-25T14:45:08.280Z,69.44
2018-09-25T14:48:17.880Z,68.95
2018-09-25T14:51:27.517Z,67.96
2018-09-25T14:54:37.283Z,67.05
2018-09-25T14:57:46.797Z,65.77
2018-09-25T15:00:56.349Z,65.92
2018-09-25T15:04:05.904Z,66.25
2018-09-25T15:07:15.578Z,66.63
2018-09-25T15:10:25.259Z,67.46
2018-09-25T15:13:34.941Z,68.05
2018-09-25T15:16:44.451Z,68.86
2018-09-25T15:19:54.042Z,68.32
2018-09-25T15:23:03.771Z,67.92
2018-09-25T15:26:13.295Z,68.39
2018-09-25T15:29:22.829Z,69.96
2018-09-25T15:32:32.289Z,70.82
2018-09-25T15:35:41.803Z,70.08
2018-09-25T15:38:51.300Z,69.64
2018-09-25T15:42:00.961Z,68.67
2018-09-25T15:45:10.588Z,66.79
2018-09-25T15:48:20.205Z,65.74
2018-09-25T15:51:29.865Z,66.80
2018-09-25T15:54:39.393Z,65.93
2018-09-25T15:57:48.977Z,67.75
2018-09-25T16:00:58.614Z,69.20
2018-09-25T16:04:08.237Z,70.86
2018-09-25T16:07:17.795Z,72.39
2018-09-25T16:10:27.208Z,74.39
2018-09-25T16:13:36.756Z,74.92
2018-09-25T16:16:46.425Z,75.19
2018-09-25T16:19:56.077Z,75.58
2018-09-25T16:23:05.728Z,76.12
2018-09-25T16:26:15.401Z,76.48
2018-09-25T16:29:25.008Z,77.70
2018-09-25T16:32:34.840Z,78.71
2018-09-25T16:35:44.467Z,79.57
2018-09-25T16:38:53.975Z,80.08
2018-09-25T16:42:03.589Z,80.83
2018-09-25T16:45:13.250Z,81.05
2018-09-25T16:48:22.880Z,82.24
2018-09-25T16:51:32.494Z,82.89
2018-09-25T16:54:42.074Z,83.01
2018-09-25T16:57:51.673Z,83.83
2018-09-25T17:01:01.302Z,84.34
2018-09-25T17:04:10.867Z,85.14
2018-09-25T17:07:20.477Z,85.47
2018-09-25T17:10:30.120Z,85.67
2018-09-25T17:13:39.745Z,86.63
2018-09-25T17:16:49.735Z,86.59
2018-09-25T17:19:59.305Z,87.50
2018-09-25T17:23:08.990Z,88.30
2018-09-25T17:26:18.543Z,88.43
2018-09-25T17:29:28.175Z,89.02
2018-09-25T17:32:37.599Z,89.74
2018-09-25T17:35:47.176Z,90.34
2018-09-25T17:38:56.828Z,90.40
2018-09-25T17:42:06.468Z,91.09
2018-09-25T17:45:16.000Z,91.38
2018-09-25T17:48:25.678Z,91.36
2018-09-25T17:51:35.247Z,91.51
2018-09-25T17:54:44.916Z,91.75
2018-09-25T17:57:54.519Z,92.43
2018-09-25T18:01:03.932Z,92.01
2018-09-25T18:04:13.591Z,92.17
2018-09-25T18:07:23.166Z,92.83
2018-09-25T18:10:32.772Z,93.09
2018-09-25T18:13:42.332Z,93.62
2018-09-25T18:16:51.805Z,93.89
2018-09-25T18:20:01.550Z,94.07
2018-09-25T18:23:11.090Z,93.91
2018-09-25T18:26:20.681Z,93.82
2018-09-25T18:29:30.273Z,93.99
2018-09-25T18:32:39.910Z,93.84
2018-09-25T18:35:49.582Z,94.30
2018-09-25T18:38:59.290Z,94.17
2018-09-25T18:42:08.980Z,94.75
2018-09-25T18:45:18.541Z,94.81
2018-09-25T18:48:35.217Z,95.17
2018-09-25T18:51:44.844Z,95.30
2018-09-25T18:54:54.402Z,95.26
2018-09-25T18:58:04.039Z,95.75
2018-09-25T19:01:13.666Z,95.74
2018-09-25T19:04:23.296Z,95.49
2018-09-25T19:07:32.755Z,95.74
2018-09-25T19:10:42.505Z,95.82
2018-09-25T19:13:52.191Z,96.48
2018-09-25T19:17:01.810Z,96.71
2018-09-25T19:20:11.390Z,97.03
2018-09-25T19:23:20.959Z,97.22
2018-09-25T19:26:30.686Z,97.42
2018-09-25T19:29:40.291Z,97.66
2018-09-25T19:32:49.836Z,98.42
2018-09-25T19:35:59.428Z,98.54
2018-09-25T19:39:09.048Z,99.03
2018-09-25T19:42:18.643Z,99.20
2018-09-25T19:45:28.362Z,99.84
2018-09-25T19:48:37.983Z,100.00
2018-09-25T19:51:47.514Z,100.00
2018-09-25T19:54:57.178Z,100.00
2018-09-25T19:58:06.922Z,100.00
2018-09-25T20:01:16.416Z,100.00
2018-09-25T20:04:26.015Z,100.00
2018-09-25T20:07:35.633Z,100.00
2018-09-25T20:10:45.259Z,100.00
2018-09-25T20:13:54.830Z,100.00
2018-09-25T20:17:04.368Z,100.00
2018-09-25T20:20:14.138Z,100.00
2018-09-25T20:23:23.622Z,100.00
2018-09-25T20:26:33.224Z,100.00
2018-09-25T20:29:42.769Z,100.00
2018-09-25T20:32:52.399Z,100.00
2018-09-25T20:36:02.057Z,100.00
2018-09-25T20:39:12.594Z,100.00
2018-09-25T20:42:22.189Z,100.00
2018-09-25T20:45:31.835Z,100.00
2018-09-25T20:48:41.369Z,100.00
2018-09-25T20:51:51.004Z,100.00
2018-09-25T20:55:00.450Z,100.00
2018-09-25T20:58:10.018Z,100.00
2018-09-25T21:01:19.668Z,100.00
2018-09-25T21:04:29.197Z,100.00
2018-09-25T21:07:38.664Z,100.00
2018-09-25T21:10:48.133Z,100.00
2018-09-25T21:13:57.591Z,100.00
2018-09-25T21:17:07.113Z,100.00
2018-09-25T21:20:16.779Z,100.00
2018-09-25T21:23:26.247Z,100.00
2018-09-25T21:26:36.348Z,100.00
2018-09-25T21:29:45.649Z,100.00
2018-09-25T21:32:55.177Z,100.00
2018-09-25T21:36:04.803Z,100.00
2018-09-25T21:39:15.587Z,100.00
2018-09-25T21:42:25.392Z,100.00
2018-09-25T21:45:34.986Z,100.00
2018-09-25T21:48:44.660Z,100.00
2018-09-25T21:51:54.397Z,100.00
2018-09-25T21:55:04.030Z,100.00
2018-09-25T21:58:13.726Z,100.00
2018-09-25T22:01:23.229Z,100.00
2018-09-25T22:04:32.872Z,100.00
2018-09-25T22:07:42.537Z,100.00
2018-09-25T22:10:52.021Z,100.00
2018-09-25T22:14:01.672Z,100.00
2018-09-25T22:17:11.193Z,100.00
2018-09-25T22:20:20.674Z,100.00
2018-09-25T22:23:30.329Z,100.00
2018-09-25T22:26:39.972Z,100.00
2018-09-25T22:29:49.621Z,100.00
2018-09-25T22:32:59.460Z,100.00
2018-09-25T22:36:09.081Z,100.00
2018-09-25T22:39:18.736Z,100.00
2018-09-25T22:42:28.271Z,100.00
2018-09-25T22:45:37.873Z,100.00
2018-09-25T22:48:47.546Z,100.00
2018-09-25T22:51:57.284Z,100.00
2018-09-25T22:55:06.889Z,100.00
2018-09-25T22:58:16.527Z,100.00
2018-09-25T23:01:26.165Z,100.00
2018-09-25T23:04:35.827Z,100.00
2018-09-25T23:07:45.412Z,100.00
2018-09-25T23:10:54.972Z,100.00
2018-09-25T23:14:04.611Z,100.00
2018-09-25T23:17:14.533Z,100.00
2018-09-25T23:20:24.008Z,99.93
2018-09-25T23:23:33.501Z,99.92
2018-09-25T23:26:42.933Z,99.87
2018-09-25T23:29:52.381Z,99.35
2018-09-25T23:33:01.856Z,99.32
2018-09-25T23:36:11.509Z,99.00
2018-09-25T23:39:21.117Z,98.82
2018-09-25T23:42:29.977Z,98.87
2018-09-25T23:45:39.600Z,99.05
2018-09-25T23:48:51.978Z,99.24
2018-09-25T23:53:00.326Z,99.40
2018-09-25T23:56:09.908Z,99.54
2018-09-25T23:59:20.149Z,99.38
